sensor_id;sensor_type;location;lat;lon;timestamp;temperature;humidity
71649;SHT31;70112;45.624;11.760;2023-12-14T00:00:42;9.53;78.11
71649;SHT31;70112;45.624;11.760;2023-12-14T00:03:07;9.54;78.11
71649;SHT31;70112;45.624;11.760;2023-12-14T00:05:33;9.56;78.10
71649;SHT31;70112;45.624;11.760;2023-12-14T00:08:00;9.58;78.09
71649;SHT31;70112;45.624;11.760;2023-12-14T00:10:26;9.56;77.96
71649;SHT31;70112;45.624;11.760;2023-12-14T00:12:55;9.51;77.80
71649;SHT31;70112;45.624;11.760;2023-12-14T00:15:29;9.48;77.77
71649;SHT31;70112;45.624;11.760;2023-12-14T00:17:55;9.44;77.71
71649;SHT31;70112;45.624;11.760;2023-12-14T00:20:21;9.43;77.69
71649;SHT31;70112;45.624;11.760;2023-12-14T00:22:46;9.41;77.62
71649;SHT31;70112;45.624;11.760;2023-12-14T00:25:12;9.40;77.66
71649;SHT31;70112;45.624;11.760;2023-12-14T00:27:38;9.40;77.68
71649;SHT31;70112;45.624;11.760;2023-12-14T00:30:03;9.41;77.70
71649;SHT31;70112;45.624;11.760;2023-12-14T00:32:30;9.38;77.57
71649;SHT31;70112;45.624;11.760;2023-12-14T00:34:56;9.33;77.40
71649;SHT31;70112;45.624;11.760;2023-12-14T00:37:21;9.28;77.28
71649;SHT31;70112;45.624;11.760;2023-12-14T00:39:47;9.20;77.10
71649;SHT31;70112;45.624;11.760;2023-12-14T00:42:15;9.12;76.93
71649;SHT31;70112;45.624;11.760;2023-12-14T00:44:41;8.98;76.69
71649;SHT31;70112;45.624;11.760;2023-12-14T00:47:06;8.83;76.70
71649;SHT31;70112;45.624;11.760;2023-12-14T00:49:32;8.75;76.83
71649;SHT31;70112;45.624;11.760;2023-12-14T00:51:58;8.70;76.90
71649;SHT31;70112;45.624;11.760;2023-12-14T00:54:23;8.70;76.95
71649;SHT31;70112;45.624;11.760;2023-12-14T00:56:49;8.70;76.83
71649;SHT31;70112;45.624;11.760;2023-12-14T00:59:15;8.69;76.78
71649;SHT31;70112;45.624;11.760;2023-12-14T01:01:43;8.65;76.66
71649;SHT31;70112;45.624;11.760;2023-12-14T01:04:09;8.59;76.60
71649;SHT31;70112;45.624;11.760;2023-12-14T01:06:35;8.54;76.69
71649;SHT31;70112;45.624;11.760;2023-12-14T01:09:01;8.53;76.70
71649;SHT31;70112;45.624;11.760;2023-12-14T01:11:26;8.52;76.73
71649;SHT31;70112;45.624;11.760;2023-12-14T01:13:52;8.51;76.76
71649;SHT31;70112;45.624;11.760;2023-12-14T01:16:18;8.51;76.80
71649;SHT31;70112;45.624;11.760;2023-12-14T01:18:43;8.51;76.84
71649;SHT31;70112;45.624;11.760;2023-12-14T01:21:09;8.50;76.78
71649;SHT31;70112;45.624;11.760;2023-12-14T01:23:37;8.46;76.70
71649;SHT31;70112;45.624;11.760;2023-12-14T01:26:06;8.40;76.75
71649;SHT31;70112;45.624;11.760;2023-12-14T01:28:32;8.38;76.85
71649;SHT31;70112;45.624;11.760;2023-12-14T01:31:01;8.38;76.90
71649;SHT31;70112;45.624;11.760;2023-12-14T01:33:27;8.39;76.98
71649;SHT31;70112;45.624;11.760;2023-12-14T01:35:58;8.40;77.02
71649;SHT31;70112;45.624;11.760;2023-12-14T01:38:24;8.43;76.94
71649;SHT31;70112;45.624;11.760;2023-12-14T01:40:49;8.40;76.71
71649;SHT31;70112;45.624;11.760;2023-12-14T01:43:15;8.37;76.54
71649;SHT31;70112;45.624;11.760;2023-12-14T01:45:50;8.32;76.49
71649;SHT31;70112;45.624;11.760;2023-12-14T01:48:15;8.29;76.42
71649;SHT31;70112;45.624;11.760;2023-12-14T01:50:41;8.25;76.34
71649;SHT31;70112;45.624;11.760;2023-12-14T01:53:07;8.18;76.35
71649;SHT31;70112;45.624;11.760;2023-12-14T01:55:33;8.16;76.39
71649;SHT31;70112;45.624;11.760;2023-12-14T01:58:01;8.13;76.33
71649;SHT31;70112;45.624;11.760;2023-12-14T02:03:09;8.11;76.21
71649;SHT31;70112;45.624;11.760;2023-12-14T02:05:37;8.10;76.19
71649;SHT31;70112;45.624;11.760;2023-12-14T02:08:03;8.08;76.10
71649;SHT31;70112;45.624;11.760;2023-12-14T02:10:29;8.04;76.11
71649;SHT31;70112;45.624;11.760;2023-12-14T02:13:02;7.99;76.11
71649;SHT31;70112;45.624;11.760;2023-12-14T02:15:39;7.92;76.08
71649;SHT31;70112;45.624;11.760;2023-12-14T02:18:08;7.86;76.18
71649;SHT31;70112;45.624;11.760;2023-12-14T02:20:50;7.84;76.15
71649;SHT31;70112;45.624;11.760;2023-12-14T02:23:21;7.80;76.14
71649;SHT31;70112;45.624;11.760;2023-12-14T02:25:46;7.76;76.04
71649;SHT31;70112;45.624;11.760;2023-12-14T02:28:15;7.72;76.00
71649;SHT31;70112;45.624;11.760;2023-12-14T02:30:41;7.68;76.02
71649;SHT31;70112;45.624;11.760;2023-12-14T02:33:08;7.64;75.98
71649;SHT31;70112;45.624;11.760;2023-12-14T02:35:36;7.58;75.84
71649;SHT31;70112;45.624;11.760;2023-12-14T02:38:04;7.47;75.73
71649;SHT31;70112;45.624;11.760;2023-12-14T02:40:37;7.40;75.84
71649;SHT31;70112;45.624;11.760;2023-12-14T02:43:06;7.31;75.84
71649;SHT31;70112;45.624;11.760;2023-12-14T02:45:34;7.24;75.80
71649;SHT31;70112;45.624;11.760;2023-12-14T02:48:00;7.18;75.80
71649;SHT31;70112;45.624;11.760;2023-12-14T02:50:26;7.15;75.77
71649;SHT31;70112;45.624;11.760;2023-12-14T02:53:01;7.13;75.78
71649;SHT31;70112;45.624;11.760;2023-12-14T02:55:29;7.11;75.82
71649;SHT31;70112;45.624;11.760;2023-12-14T02:58:16;7.10;75.81
71649;SHT31;70112;45.624;11.760;2023-12-14T03:00:41;7.04;75.80
71649;SHT31;70112;45.624;11.760;2023-12-14T03:03:12;6.96;75.74
71649;SHT31;70112;45.624;11.760;2023-12-14T03:05:40;6.88;75.71
71649;SHT31;70112;45.624;11.760;2023-12-14T03:08:08;6.86;75.81
71649;SHT31;70112;45.624;11.760;2023-12-14T03:10:34;6.87;75.80
71649;SHT31;70112;45.624;11.760;2023-12-14T03:13:00;6.86;75.82
71649;SHT31;70112;45.624;11.760;2023-12-14T03:15:25;6.86;75.88
71649;SHT31;70112;45.624;11.760;2023-12-14T03:17:57;6.84;75.77
71649;SHT31;70112;45.624;11.760;2023-12-14T03:20:25;6.79;75.72
71649;SHT31;70112;45.624;11.760;2023-12-14T03:22:58;6.76;75.84
71649;SHT31;70112;45.624;11.760;2023-12-14T03:25:24;6.72;75.88
71649;SHT31;70112;45.624;11.760;2023-12-14T03:27:56;6.66;75.86
71649;SHT31;70112;45.624;11.760;2023-12-14T03:30:22;6.60;75.84
71649;SHT31;70112;45.624;11.760;2023-12-14T03:32:48;6.54;75.91
71649;SHT31;70112;45.624;11.760;2023-12-14T03:35:14;6.52;75.99
71649;SHT31;70112;45.624;11.760;2023-12-14T03:37:43;6.49;75.92
71649;SHT31;70112;45.624;11.760;2023-12-14T03:40:11;6.49;76.00
71649;SHT31;70112;45.624;11.760;2023-12-14T03:42:45;6.49;75.99
71649;SHT31;70112;45.624;11.760;2023-12-14T03:45:11;6.49;75.91
71649;SHT31;70112;45.624;11.760;2023-12-14T03:47:40;6.49;75.80
71649;SHT31;70112;45.624;11.760;2023-12-14T03:50:06;6.45;75.68
71649;SHT31;70112;45.624;11.760;2023-12-14T03:52:34;6.39;75.63
71649;SHT31;70112;45.624;11.760;2023-12-14T03:55:02;6.31;75.61
71649;SHT31;70112;45.624;11.760;2023-12-14T03:57:28;6.27;75.69
71649;SHT31;70112;45.624;11.760;2023-12-14T04:00:04;6.25;75.77
71649;SHT31;70112;45.624;11.760;2023-12-14T04:02:33;6.23;75.87
71649;SHT31;70112;45.624;11.760;2023-12-14T04:05:01;6.26;75.89
71649;SHT31;70112;45.624;11.760;2023-12-14T04:07:37;6.27;75.82
71649;SHT31;70112;45.624;11.760;2023-12-14T04:10:08;6.28;75.75
71649;SHT31;70112;45.624;11.760;2023-12-14T04:12:38;6.24;75.69
71649;SHT31;70112;45.624;11.760;2023-12-14T04:15:08;6.22;75.76
71649;SHT31;70112;45.624;11.760;2023-12-14T04:17:35;6.20;75.80
71649;SHT31;70112;45.624;11.760;2023-12-14T04:20:04;6.14;75.87
71649;SHT31;70112;45.624;11.760;2023-12-14T04:22:31;6.10;75.89
71649;SHT31;70112;45.624;11.760;2023-12-14T04:25:00;6.05;75.90
71649;SHT31;70112;45.624;11.760;2023-12-14T04:27:57;6.01;75.88
71649;SHT31;70112;45.624;11.760;2023-12-14T04:30:22;5.94;75.79
71649;SHT31;70112;45.624;11.760;2023-12-14T04:32:52;5.90;75.68
71649;SHT31;70112;45.624;11.760;2023-12-14T04:35:18;5.84;75.58
71649;SHT31;70112;45.624;11.760;2023-12-14T04:37:52;5.81;75.72
71649;SHT31;70112;45.624;11.760;2023-12-14T04:40:21;5.80;75.81
71649;SHT31;70112;45.624;11.760;2023-12-14T04:42:53;5.76;75.90
71649;SHT31;70112;45.624;11.760;2023-12-14T04:45:21;5.74;75.99
71649;SHT31;70112;45.624;11.760;2023-12-14T04:47:49;5.72;76.11
71649;SHT31;70112;45.624;11.760;2023-12-14T04:50:21;5.72;76.28
71649;SHT31;70112;45.624;11.760;2023-12-14T04:52:55;5.74;76.49
71649;SHT31;70112;45.624;11.760;2023-12-14T04:55:44;5.77;76.60
71649;SHT31;70112;45.624;11.760;2023-12-14T04:58:10;5.77;76.67
71649;SHT31;70112;45.624;11.760;2023-12-14T05:00:42;5.80;76.73
71649;SHT31;70112;45.624;11.760;2023-12-14T05:03:11;5.81;76.82
71649;SHT31;70112;45.624;11.760;2023-12-14T05:05:59;5.82;76.85
71649;SHT31;70112;45.624;11.760;2023-12-14T05:08:25;5.84;76.90
71649;SHT31;70112;45.624;11.760;2023-12-14T05:10:51;5.84;76.91
71649;SHT31;70112;45.624;11.760;2023-12-14T05:13:17;5.85;76.94
71649;SHT31;70112;45.624;11.760;2023-12-14T05:15:42;5.86;77.00
71649;SHT31;70112;45.624;11.760;2023-12-14T05:18:08;5.88;76.98
71649;SHT31;70112;45.624;11.760;2023-12-14T05:20:34;5.93;76.90
71649;SHT31;70112;45.624;11.760;2023-12-14T05:23:00;5.95;76.86
71649;SHT31;70112;45.624;11.760;2023-12-14T05:25:27;5.93;76.77
71649;SHT31;70112;45.624;11.760;2023-12-14T05:27:55;5.96;76.82
71649;SHT31;70112;45.624;11.760;2023-12-14T05:30:27;6.01;76.87
71649;SHT31;70112;45.624;11.760;2023-12-14T05:32:56;6.04;76.83
71649;SHT31;70112;45.624;11.760;2023-12-14T05:35:32;6.05;76.84
71649;SHT31;70112;45.624;11.760;2023-12-14T05:38:01;6.05;76.81
71649;SHT31;70112;45.624;11.760;2023-12-14T05:40:34;5.99;76.71
71649;SHT31;70112;45.624;11.760;2023-12-14T05:43:00;5.95;76.81
71649;SHT31;70112;45.624;11.760;2023-12-14T05:45:32;5.95;76.91
71649;SHT31;70112;45.624;11.760;2023-12-14T05:48:01;5.97;76.92
71649;SHT31;70112;45.624;11.760;2023-12-14T05:50:29;6.00;76.95
71649;SHT31;70112;45.624;11.760;2023-12-14T05:53:06;6.02;76.96
71649;SHT31;70112;45.624;11.760;2023-12-14T05:55:32;6.04;76.92
71649;SHT31;70112;45.624;11.760;2023-12-14T06:00:36;6.02;76.87
71649;SHT31;70112;45.624;11.760;2023-12-14T06:03:02;6.00;76.80
71649;SHT31;70112;45.624;11.760;2023-12-14T06:05:28;5.98;76.80
71649;SHT31;70112;45.624;11.760;2023-12-14T06:07:54;5.98;76.83
71649;SHT31;70112;45.624;11.760;2023-12-14T06:10:19;6.03;76.94
71649;SHT31;70112;45.624;11.760;2023-12-14T06:15:42;6.17;77.00
71649;SHT31;70112;45.624;11.760;2023-12-14T06:18:18;6.21;76.97
71649;SHT31;70112;45.624;11.760;2023-12-14T06:23:53;6.22;76.90
71649;SHT31;70112;45.624;11.760;2023-12-14T06:26:24;6.21;76.80
71649;SHT31;70112;45.624;11.760;2023-12-14T06:29:01;6.18;76.73
71649;SHT31;70112;45.624;11.760;2023-12-14T06:31:27;6.16;76.71
71649;SHT31;70112;45.624;11.760;2023-12-14T06:34:26;6.14;76.60
71649;SHT31;70112;45.624;11.760;2023-12-14T06:36:55;6.15;76.57
71649;SHT31;70112;45.624;11.760;2023-12-14T06:39:31;6.14;76.49
71649;SHT31;70112;45.624;11.760;2023-12-14T06:41:59;6.10;76.41
71649;SHT31;70112;45.624;11.760;2023-12-14T06:44:37;6.08;76.45
71649;SHT31;70112;45.624;11.760;2023-12-14T06:47:22;6.01;76.39
71649;SHT31;70112;45.624;11.760;2023-12-14T06:52:41;5.93;76.42
71649;SHT31;70112;45.624;11.760;2023-12-14T06:55:09;5.91;76.33
71649;SHT31;70112;45.624;11.760;2023-12-14T06:57:42;5.90;76.30
71649;SHT31;70112;45.624;11.760;2023-12-14T07:00:17;5.85;76.23
71649;SHT31;70112;45.624;11.760;2023-12-14T07:02:44;5.84;76.21
71649;SHT31;70112;45.624;11.760;2023-12-14T07:05:09;5.82;76.11
71649;SHT31;70112;45.624;11.760;2023-12-14T07:07:35;5.77;75.91
71649;SHT31;70112;45.624;11.760;2023-12-14T07:10:09;5.70;75.92
71649;SHT31;70112;45.624;11.760;2023-12-14T07:12:35;5.68;76.08
71649;SHT31;70112;45.624;11.760;2023-12-14T07:15:01;5.65;76.14
71649;SHT31;70112;45.624;11.760;2023-12-14T07:17:30;5.64;76.19
71649;SHT31;70112;45.624;11.760;2023-12-14T07:19:55;5.61;76.11
71649;SHT31;70112;45.624;11.760;2023-12-14T07:22:24;5.59;76.09
71649;SHT31;70112;45.624;11.760;2023-12-14T07:25:00;5.57;76.14
71649;SHT31;70112;45.624;11.760;2023-12-14T07:27:26;5.58;76.22
71649;SHT31;70112;45.624;11.760;2023-12-14T07:30:03;5.60;76.36
71649;SHT31;70112;45.624;11.760;2023-12-14T07:32:51;5.65;76.49
71649;SHT31;70112;45.624;11.760;2023-12-14T07:35:21;5.68;76.50
71649;SHT31;70112;45.624;11.760;2023-12-14T07:37:49;5.69;76.56
71649;SHT31;70112;45.624;11.760;2023-12-14T07:40:15;5.70;76.60
71649;SHT31;70112;45.624;11.760;2023-12-14T07:42:41;5.73;76.68
71649;SHT31;70112;45.624;11.760;2023-12-14T07:45:07;5.78;76.70
71649;SHT31;70112;45.624;11.760;2023-12-14T07:47:34;5.83;76.75
71649;SHT31;70112;45.624;11.760;2023-12-14T07:50:00;5.87;76.79
71649;SHT31;70112;45.624;11.760;2023-12-14T07:52:26;5.90;76.85
71649;SHT31;70112;45.624;11.760;2023-12-14T07:54:52;5.94;76.92
71649;SHT31;70112;45.624;11.760;2023-12-14T07:57:17;6.00;77.02
71649;SHT31;70112;45.624;11.760;2023-12-14T07:59:43;6.05;77.09
71649;SHT31;70112;45.624;11.760;2023-12-14T08:02:08;6.12;77.19
71649;SHT31;70112;45.624;11.760;2023-12-14T08:04:34;6.17;77.19
71649;SHT31;70112;45.624;11.760;2023-12-14T08:07:00;6.21;77.26
71649;SHT31;70112;45.624;11.760;2023-12-14T08:09:25;6.25;77.33
71649;SHT31;70112;45.624;11.760;2023-12-14T08:11:51;6.27;77.30
71649;SHT31;70112;45.624;11.760;2023-12-14T08:14:17;6.29;77.36
71649;SHT31;70112;45.624;11.760;2023-12-14T08:16:43;6.34;77.42
71649;SHT31;70112;45.624;11.760;2023-12-14T08:19:08;6.37;77.40
71649;SHT31;70112;45.624;11.760;2023-12-14T08:21:34;6.40;77.40
71649;SHT31;70112;45.624;11.760;2023-12-14T08:23:59;6.44;77.41
71649;SHT31;70112;45.624;11.760;2023-12-14T08:26:28;6.47;77.46
71649;SHT31;70112;45.624;11.760;2023-12-14T08:28:54;6.53;77.51
71649;SHT31;70112;45.624;11.760;2023-12-14T08:31:20;6.58;77.54
71649;SHT31;70112;45.624;11.760;2023-12-14T08:33:45;6.65;77.59
71649;SHT31;70112;45.624;11.760;2023-12-14T08:36:14;6.71;77.61
71649;SHT31;70112;45.624;11.760;2023-12-14T08:38:41;6.75;77.65
71649;SHT31;70112;45.624;11.760;2023-12-14T08:41:07;6.79;77.68
71649;SHT31;70112;45.624;11.760;2023-12-14T08:43:33;6.81;77.64
71649;SHT31;70112;45.624;11.760;2023-12-14T08:46:05;6.84;77.66
71649;SHT31;70112;45.624;11.760;2023-12-14T08:48:30;6.88;77.60
71649;SHT31;70112;45.624;11.760;2023-12-14T08:50:56;6.91;77.57
71649;SHT31;70112;45.624;11.760;2023-12-14T08:53:22;6.95;77.56
71649;SHT31;70112;45.624;11.760;2023-12-14T08:55:48;7.00;77.50
71649;SHT31;70112;45.624;11.760;2023-12-14T08:58:39;7.03;77.50
71649;SHT31;70112;45.624;11.760;2023-12-14T09:01:11;7.12;77.54
71649;SHT31;70112;45.624;11.760;2023-12-14T09:03:54;7.25;77.60
71649;SHT31;70112;45.624;11.760;2023-12-14T09:07:09;7.42;77.61
71649;SHT31;70112;45.624;11.760;2023-12-14T09:09:34;7.62;77.52
71649;SHT31;70112;45.624;11.760;2023-12-14T09:12:22;7.78;77.42
71649;SHT31;70112;45.624;11.760;2023-12-14T09:15:52;7.89;77.20
71649;SHT31;70112;45.624;11.760;2023-12-14T09:18:40;7.95;77.11
71649;SHT31;70112;45.624;11.760;2023-12-14T09:21:09;8.02;77.12
71649;SHT31;70112;45.624;11.760;2023-12-14T09:23:34;8.11;77.06
71649;SHT31;70112;45.624;11.760;2023-12-14T09:26:00;8.26;77.03
71649;SHT31;70112;45.624;11.760;2023-12-14T09:28:26;8.41;76.95
71649;SHT31;70112;45.624;11.760;2023-12-14T09:31:05;8.60;76.89
71649;SHT31;70112;45.624;11.760;2023-12-14T09:33:31;8.79;76.90
71649;SHT31;70112;45.624;11.760;2023-12-14T09:35:57;8.96;76.82
71649;SHT31;70112;45.624;11.760;2023-12-14T09:38:23;9.11;76.74
71649;SHT31;70112;45.624;11.760;2023-12-14T09:40:48;9.30;76.64
71649;SHT31;70112;45.624;11.760;2023-12-14T09:43:14;9.47;76.64
71649;SHT31;70112;45.624;11.760;2023-12-14T09:45:43;9.66;76.48
71649;SHT31;70112;45.624;11.760;2023-12-14T09:48:10;9.80;76.33
71649;SHT31;70112;45.624;11.760;2023-12-14T09:50:40;9.94;76.22
71649;SHT31;70112;45.624;11.760;2023-12-14T09:53:09;10.07;76.01
71649;SHT31;70112;45.624;11.760;2023-12-14T09:55:35;10.20;75.82
71649;SHT31;70112;45.624;11.760;2023-12-14T10:00:45;10.34;75.54
71649;SHT31;70112;45.624;11.760;2023-12-14T10:05:59;10.54;75.31
71649;SHT31;70112;45.624;11.760;2023-12-14T10:08:27;10.70;75.22
71649;SHT31;70112;45.624;11.760;2023-12-14T10:10:56;10.81;75.10
71649;SHT31;70112;45.624;11.760;2023-12-14T10:13:37;10.90;74.98
71649;SHT31;70112;45.624;11.760;2023-12-14T10:16:04;10.96;74.90
71649;SHT31;70112;45.624;11.760;2023-12-14T10:18:31;11.00;74.80
71649;SHT31;70112;45.624;11.760;2023-12-14T10:21:01;11.08;74.99
71649;SHT31;70112;45.624;11.760;2023-12-14T10:23:29;11.15;74.99
71649;SHT31;70112;45.624;11.760;2023-12-14T10:25:55;11.21;74.92
71649;SHT31;70112;45.624;11.760;2023-12-14T10:28:22;11.27;74.90
71649;SHT31;70112;45.624;11.760;2023-12-14T10:30:49;11.34;74.91
71649;SHT31;70112;45.624;11.760;2023-12-14T10:33:15;11.39;74.79
71649;SHT31;70112;45.624;11.760;2023-12-14T10:35:41;11.43;74.78
71649;SHT31;70112;45.624;11.760;2023-12-14T10:38:08;11.49;74.90
71649;SHT31;70112;45.624;11.760;2023-12-14T10:40:36;11.55;74.89
71649;SHT31;70112;45.624;11.760;2023-12-14T10:43:06;11.60;74.72
71649;SHT31;70112;45.624;11.760;2023-12-14T10:45:32;11.64;74.59
71649;SHT31;70112;45.624;11.760;2023-12-14T10:47:58;11.65;74.50
71649;SHT31;70112;45.624;11.760;2023-12-14T10:50:29;11.67;74.48
71649;SHT31;70112;45.624;11.760;2023-12-14T10:52:56;11.70;74.41
71649;SHT31;70112;45.624;11.760;2023-12-14T10:55:40;11.74;74.38
71649;SHT31;70112;45.624;11.760;2023-12-14T10:58:11;11.80;74.36
71649;SHT31;70112;45.624;11.760;2023-12-14T11:00:37;11.84;74.32
71649;SHT31;70112;45.624;11.760;2023-12-14T11:03:04;11.87;74.20
71649;SHT31;70112;45.624;11.760;2023-12-14T11:05:32;11.89;74.17
71649;SHT31;70112;45.624;11.760;2023-12-14T11:08:05;11.92;74.12
71649;SHT31;70112;45.624;11.760;2023-12-14T11:10:54;11.95;74.20
71649;SHT31;70112;45.624;11.760;2023-12-14T11:13:37;11.99;74.38
71649;SHT31;70112;45.624;11.760;2023-12-14T11:16:05;12.03;74.35
71649;SHT31;70112;45.624;11.760;2023-12-14T11:18:30;12.11;74.35
71649;SHT31;70112;45.624;11.760;2023-12-14T11:20:57;12.16;74.44
71649;SHT31;70112;45.624;11.760;2023-12-14T11:23:26;12.24;74.50
71649;SHT31;70112;45.624;11.760;2023-12-14T11:26:06;12.32;74.34
71649;SHT31;70112;45.624;11.760;2023-12-14T11:28:35;12.38;74.16
71649;SHT31;70112;45.624;11.760;2023-12-14T11:31:04;12.42;73.94
71649;SHT31;70112;45.624;11.760;2023-12-14T11:33:34;12.44;73.72
71649;SHT31;70112;45.624;11.760;2023-12-14T11:36:01;12.43;73.72
71649;SHT31;70112;45.624;11.760;2023-12-14T11:38:31;12.41;73.76
71649;SHT31;70112;45.624;11.760;2023-12-14T11:41:00;12.40;73.74
71649;SHT31;70112;45.624;11.760;2023-12-14T11:43:27;12.35;73.74
71649;SHT31;70112;45.624;11.760;2023-12-14T11:45:53;12.33;73.76
71649;SHT31;70112;45.624;11.760;2023-12-14T11:48:20;12.28;73.67
71649;SHT31;70112;45.624;11.760;2023-12-14T11:50:46;12.27;73.77
71649;SHT31;70112;45.624;11.760;2023-12-14T11:53:14;12.30;73.75
71649;SHT31;70112;45.624;11.760;2023-12-14T11:55:41;12.30;73.62
71649;SHT31;70112;45.624;11.760;2023-12-14T11:58:09;12.33;73.92
71649;SHT31;70112;45.624;11.760;2023-12-14T12:00:39;12.37;73.99
71649;SHT31;70112;45.624;11.760;2023-12-14T12:03:08;12.39;73.97
71649;SHT31;70112;45.624;11.760;2023-12-14T12:05:48;12.41;73.86
71649;SHT31;70112;45.624;11.760;2023-12-14T12:08:16;12.44;73.87
71649;SHT31;70112;45.624;11.760;2023-12-14T12:10:44;12.46;74.00
71649;SHT31;70112;45.624;11.760;2023-12-14T12:13:12;12.49;73.99
71649;SHT31;70112;45.624;11.760;2023-12-14T12:15:40;12.53;73.94
71649;SHT31;70112;45.624;11.760;2023-12-14T12:18:07;12.52;73.79
71649;SHT31;70112;45.624;11.760;2023-12-14T12:20:38;12.51;73.77
71649;SHT31;70112;45.624;11.760;2023-12-14T12:23:04;12.51;73.83
71649;SHT31;70112;45.624;11.760;2023-12-14T12:25:30;12.54;74.09
71649;SHT31;70112;45.624;11.760;2023-12-14T12:27:56;12.56;74.24
71649;SHT31;70112;45.624;11.760;2023-12-14T12:30:23;12.57;74.30
71649;SHT31;70112;45.624;11.760;2023-12-14T12:32:49;12.60;74.26
71649;SHT31;70112;45.624;11.760;2023-12-14T12:35:21;12.63;74.24
71649;SHT31;70112;45.624;11.760;2023-12-14T12:37:48;12.65;74.20
71649;SHT31;70112;45.624;11.760;2023-12-14T12:40:18;12.69;74.20
71649;SHT31;70112;45.624;11.760;2023-12-14T12:42:48;12.69;73.98
71649;SHT31;70112;45.624;11.760;2023-12-14T12:45:15;12.65;73.69
71649;SHT31;70112;45.624;11.760;2023-12-14T12:47:47;12.59;73.63
71649;SHT31;70112;45.624;11.760;2023-12-14T12:50:13;12.55;73.65
71649;SHT31;70112;45.624;11.760;2023-12-14T12:52:38;12.53;73.78
71649;SHT31;70112;45.624;11.760;2023-12-14T12:55:05;12.54;73.90
71649;SHT31;70112;45.624;11.760;2023-12-14T12:57:32;12.55;73.98
71649;SHT31;70112;45.624;11.760;2023-12-14T12:59:57;12.58;74.10
71649;SHT31;70112;45.624;11.760;2023-12-14T13:02:23;12.61;74.08
71649;SHT31;70112;45.624;11.760;2023-12-14T13:04:48;12.62;74.10
71649;SHT31;70112;45.624;11.760;2023-12-14T13:07:15;12.63;74.10
71649;SHT31;70112;45.624;11.760;2023-12-14T13:09:41;12.62;74.07
71649;SHT31;70112;45.624;11.760;2023-12-14T13:12:07;12.61;73.99
71649;SHT31;70112;45.624;11.760;2023-12-14T13:14:32;12.59;73.94
71649;SHT31;70112;45.624;11.760;2023-12-14T13:16:58;12.56;73.93
71649;SHT31;70112;45.624;11.760;2023-12-14T13:19:24;12.53;73.91
71649;SHT31;70112;45.624;11.760;2023-12-14T13:21:51;12.51;73.96
71649;SHT31;70112;45.624;11.760;2023-12-14T13:24:17;12.46;73.93
71649;SHT31;70112;45.624;11.760;2023-12-14T13:26:42;12.42;73.94
71649;SHT31;70112;45.624;11.760;2023-12-14T13:29:08;12.36;73.99
71649;SHT31;70112;45.624;11.760;2023-12-14T13:31:33;12.30;74.00
71649;SHT31;70112;45.624;11.760;2023-12-14T13:33:59;12.24;73.98
71649;SHT31;70112;45.624;11.760;2023-12-14T13:36:24;12.19;74.00
71649;SHT31;70112;45.624;11.760;2023-12-14T13:38:50;12.12;74.03
71649;SHT31;70112;45.624;11.760;2023-12-14T13:41:15;12.06;74.13
71649;SHT31;70112;45.624;11.760;2023-12-14T13:43:41;12.00;74.23
71649;SHT31;70112;45.624;11.760;2023-12-14T13:46:06;11.93;74.38
71649;SHT31;70112;45.624;11.760;2023-12-14T13:48:32;11.89;74.55
71649;SHT31;70112;45.624;11.760;2023-12-14T13:50:58;11.86;74.62
71649;SHT31;70112;45.624;11.760;2023-12-14T13:53:23;11.83;74.70
71649;SHT31;70112;45.624;11.760;2023-12-14T13:55:49;11.80;74.76
71649;SHT31;70112;45.624;11.760;2023-12-14T13:58:15;11.78;74.76
71649;SHT31;70112;45.624;11.760;2023-12-14T14:00:41;11.72;74.74
71649;SHT31;70112;45.624;11.760;2023-12-14T14:03:09;11.70;74.91
71649;SHT31;70112;45.624;11.760;2023-12-14T14:05:35;11.68;75.01
71649;SHT31;70112;45.624;11.760;2023-12-14T14:08:04;11.67;75.07
71649;SHT31;70112;45.624;11.760;2023-12-14T14:10:29;11.63;75.07
71649;SHT31;70112;45.624;11.760;2023-12-14T14:12:55;11.56;75.13
71649;SHT31;70112;45.624;11.760;2023-12-14T14:15:21;11.51;75.24
71649;SHT31;70112;45.624;11.760;2023-12-14T14:17:47;11.47;75.36
71649;SHT31;70112;45.624;11.760;2023-12-14T14:20:16;11.43;75.48
71649;SHT31;70112;45.624;11.760;2023-12-14T14:22:43;11.39;75.59
71649;SHT31;70112;45.624;11.760;2023-12-14T14:25:09;11.35;75.70
71649;SHT31;70112;45.624;11.760;2023-12-14T14:27:35;11.31;75.73
71649;SHT31;70112;45.624;11.760;2023-12-14T14:30:01;11.25;75.89
71649;SHT31;70112;45.624;11.760;2023-12-14T14:32:27;11.20;76.06
71649;SHT31;70112;45.624;11.760;2023-12-14T14:34:56;11.18;76.11
71649;SHT31;70112;45.624;11.760;2023-12-14T14:37:23;11.15;76.14
71649;SHT31;70112;45.624;11.760;2023-12-14T14:39:50;11.13;76.18
71649;SHT31;70112;45.624;11.760;2023-12-14T14:42:16;11.06;76.17
71649;SHT31;70112;45.624;11.760;2023-12-14T14:44:41;10.99;76.28
71649;SHT31;70112;45.624;11.760;2023-12-14T14:47:07;10.93;76.34
71649;SHT31;70112;45.624;11.760;2023-12-14T14:49:33;10.86;76.43
71649;SHT31;70112;45.624;11.760;2023-12-14T14:51:58;10.83;76.58
71649;SHT31;70112;45.624;11.760;2023-12-14T14:54:24;10.81;76.70
71649;SHT31;70112;45.624;11.760;2023-12-14T14:56:50;10.79;76.77
71649;SHT31;70112;45.624;11.760;2023-12-14T14:59:16;10.77;76.83
71649;SHT31;70112;45.624;11.760;2023-12-14T15:01:41;10.75;76.89
71649;SHT31;70112;45.624;11.760;2023-12-14T15:04:10;10.73;76.98
71649;SHT31;70112;45.624;11.760;2023-12-14T15:06:36;10.73;77.05
71649;SHT31;70112;45.624;11.760;2023-12-14T15:09:01;10.74;77.09
71649;SHT31;70112;45.624;11.760;2023-12-14T15:11:27;10.74;77.10
71649;SHT31;70112;45.624;11.760;2023-12-14T15:13:53;10.72;77.16
71649;SHT31;70112;45.624;11.760;2023-12-14T15:16:18;10.70;77.15
71649;SHT31;70112;45.624;11.760;2023-12-14T15:18:44;10.65;77.24
71649;SHT31;70112;45.624;11.760;2023-12-14T15:21:10;10.63;77.27
71649;SHT31;70112;45.624;11.760;2023-12-14T15:23:39;10.61;77.33
71649;SHT31;70112;45.624;11.760;2023-12-14T15:26:06;10.60;77.38
71649;SHT31;70112;45.624;11.760;2023-12-14T15:28:33;10.60;77.40
71649;SHT31;70112;45.624;11.760;2023-12-14T15:30:58;10.58;77.40
71649;SHT31;70112;45.624;11.760;2023-12-14T15:33:24;10.59;77.45
71649;SHT31;70112;45.624;11.760;2023-12-14T15:35:51;10.57;77.46
71649;SHT31;70112;45.624;11.760;2023-12-14T15:38:16;10.55;77.49
71649;SHT31;70112;45.624;11.760;2023-12-14T15:40:42;10.54;77.51
71649;SHT31;70112;45.624;11.760;2023-12-14T15:43:07;10.53;77.50
71649;SHT31;70112;45.624;11.760;2023-12-14T15:45:33;10.50;77.47
71649;SHT31;70112;45.624;11.760;2023-12-14T15:48:00;10.48;77.49
71649;SHT31;70112;45.624;11.760;2023-12-14T15:50:26;10.45;77.46
71649;SHT31;70112;45.624;11.760;2023-12-14T15:52:52;10.42;77.50